Time;durP1;ratioP1;P1;durP2;ratioP2;P2;SDS_P1;SDS_P2;PMS_P1;PMS_P2;Temp;Humidity;BMP_temperature;BMP_pressure;BME280_temperature;BME280_humidity;BME280_pressure;Samples;Min_cycle;Max_cycle;Signal;HPM_P1;HPM_P2
2020/12/13 00:01:43;;;;;;;30.80;10.27;;;7.50;1.00;;;;;;5096914;28;20564;-74
2020/12/13 00:04:08;;;;;;;28.47;9.80;;;7.50;1.00;;;;;;5092649;28;20181;-74
2020/12/13 00:06:46;;;;;;;36.87;11.40;;;7.50;1.00;;;;;;5076702;28;20396;-74
2020/12/13 00:09:16;;;;;;;26.60;10.00;;;7.50;1.00;;;;;;5076632;28;20159;-74
2020/12/13 00:11:41;;;;;;;27.83;10.50;;;7.50;1.00;;;;;;5075994;28;20766;-73
2020/12/13 00:14:07;;;;;;;30.90;10.20;;;;;;;;;;5088342;28;20457;-74
2020/12/13 00:16:33;;;;;;;30.93;10.67;;;7.50;1.00;;;;;;5076242;28;20621;-74
2020/12/13 00:19:04;;;;;;;23.90;9.03;;;7.60;1.00;;;;;;5076200;28;20390;-74
2020/12/13 00:21:29;;;;;;;28.60;10.83;;;7.50;1.00;;;;;;5078058;28;20649;-74
2020/12/13 00:23:55;;;;;;;28.90;9.40;;;7.50;1.00;;;;;;5076192;28;20396;-74
2020/12/13 00:26:21;;;;;;;24.13;9.83;;;8.50;1.00;;;;;;5079181;28;20197;-74
2020/12/13 00:29:04;;;;;;;23.20;9.87;;;8.70;1.00;;;;;;5088195;28;20202;-74
2020/12/13 00:31:34;;;;;;;36.33;11.33;;;7.60;1.00;;;;;;5075988;28;20852;-74
2020/12/13 00:33:59;;;;;;;39.17;10.20;;;7.50;1.00;;;;;;5077827;28;20935;-74
2020/12/13 00:37:09;;;;;;;25.77;9.20;;;7.60;1.00;;;;;;5084779;28;20467;-76
2020/12/13 00:39:40;;;;;;;26.60;9.87;;;7.50;1.00;;;;;;5096389;28;20162;-76
2020/12/13 00:42:27;;;;;;;29.33;11.43;;;7.60;1.00;;;;;;5087182;28;20771;-76
2020/12/13 00:48:28;;;;;;;21.00;9.57;;;7.60;1.00;;;;;;5075849;28;20504;-76
2020/12/13 00:51:10;;;;;;;27.17;9.97;;;7.60;1.00;;;;;;5075856;28;20945;-77
2020/12/13 00:53:52;;;;;;;25.53;9.80;;;7.60;1.00;;;;;;5075580;28;20865;-74
2020/12/13 00:56:18;;;;;;;25.00;9.50;;;7.60;1.00;;;;;;5075870;28;20805;-74
2020/12/13 00:58:44;;;;;;;23.83;9.90;;;7.60;1.00;;;;;;5075386;28;20390;-74
2020/12/13 01:01:10;;;;;;;32.13;9.60;;;7.70;1.00;;;;;;5075173;28;20425;-74
2020/12/13 01:03:35;;;;;;;35.47;10.70;;;7.70;1.00;;;;;;5076032;28;20588;-74
2020/12/13 01:06:02;;;;;;;22.77;9.13;;;9.30;1.00;;;;;;5080694;28;20598;-74
2020/12/13 01:08:27;;;;;;;21.23;8.70;;;7.70;1.00;;;;;;5095935;28;20218;-76
2020/12/13 01:11:23;;;;;;;26.83;9.20;;;8.80;1.00;;;;;;5075066;28;20785;-76
2020/12/13 01:17:16;;;;;;;19.30;7.83;;;7.70;1.00;;;;;;5095029;28;20415;-76
2020/12/13 01:20:23;;;;;;;21.57;9.50;;;7.60;1.00;;;;;;5095428;28;20377;-77
2020/12/13 01:22:52;;;;;;;23.60;9.93;;;7.60;1.00;;;;;;5094440;28;20384;-76
2020/12/13 01:25:45;;;;;;;26.77;9.60;;;7.60;1.00;;;;;;5073632;28;20789;-76
2020/12/13 01:28:28;;;;;;;24.50;9.60;;;7.60;1.00;;;;;;5073336;28;20476;-76
2020/12/13 01:31:17;;;;;;;27.00;9.60;;;7.60;1.00;;;;;;5088701;28;20444;-76
2020/12/13 01:33:47;;;;;;;27.57;9.60;;;7.70;1.00;;;;;;5095009;28;20886;-76
2020/12/13 01:36:18;;;;;;;25.57;8.70;;;8.60;1.00;;;;;;5088747;28;21077;-76
2020/12/13 01:38:52;;;;;;;27.60;9.63;;;7.80;1.00;;;;;;5075393;28;20523;-76
2020/12/13 01:41:22;;;;;;;23.67;9.77;;;7.60;1.00;;;;;;5074533;28;20808;-76
2020/12/13 01:44:33;;;;;;;25.20;9.90;;;7.60;1.00;;;;;;5074809;28;20807;-76
2020/12/13 01:47:46;;;;;;;20.70;8.73;;;7.70;1.00;;;;;;5074858;28;20404;-76
2020/12/13 01:53:15;;;;;;;30.40;10.30;;;7.70;1.00;;;;;;5074981;28;20402;-74
2020/12/13 01:55:46;;;;;;;28.60;9.20;;;7.70;1.00;;;;;;5074531;28;20389;-74
2020/12/13 01:58:30;;;;;;;22.80;8.40;;;7.70;1.00;;;;;;5074402;28;20401;-74
2020/12/13 02:00:59;;;;;;;24.43;9.03;;;7.70;1.00;;;;;;5074142;28;20421;-74
2020/12/13 02:03:32;;;;;;;27.60;9.17;;;7.70;1.00;;;;;;5082958;28;20886;-73
2020/12/13 02:06:02;;;;;;;26.60;10.33;;;7.70;1.00;;;;;;5089757;28;20732;-74
2020/12/13 02:08:46;;;;;;;34.03;9.23;;;7.70;1.00;;;;;;5074396;28;20522;-74
2020/12/13 02:11:11;;;;;;;22.07;9.00;;;7.70;1.00;;;;;;5074121;28;20401;-74
2020/12/13 02:13:38;;;;;;;20.07;8.73;;;7.80;1.00;;;;;;5073895;28;20433;-74
2020/12/13 02:16:06;;;;;;;26.00;9.30;;;7.90;1.00;;;;;;5074053;28;20417;-74
2020/12/13 02:18:31;;;;;;;27.90;9.00;;;9.00;1.00;;;;;;5074213;28;20745;-74
2020/12/13 02:20:57;;;;;;;25.27;9.03;;;7.80;1.00;;;;;;5073893;28;20401;-73
2020/12/13 02:23:34;;;;;;;31.73;9.97;;;7.80;1.00;;;;;;5074074;28;20175;-74
2020/12/13 02:25:59;;;;;;;38.47;11.33;;;7.80;1.00;;;;;;5074026;28;20543;-74
2020/12/13 02:28:28;;;;;;;23.53;9.17;;;7.80;1.00;;;;;;5073775;28;20457;-74
2020/12/13 02:30:53;;;;;;;25.70;9.80;;;7.80;1.00;;;;;;5073761;28;20653;-74
2020/12/13 02:33:19;;;;;;;38.80;11.60;;;7.80;1.00;;;;;;5073612;28;20414;-74
2020/12/13 02:35:46;;;;;;;28.77;10.87;;;8.90;1.00;;;;;;5090651;28;20261;-74
2020/12/13 02:38:12;;;;;;;40.37;9.80;;;7.80;1.00;;;;;;5093687;28;20687;-74
2020/12/13 02:40:37;;;;;;;43.10;10.17;;;8.70;1.00;;;;;;5094065;28;20429;-74
2020/12/13 02:43:04;;;;;;;35.30;10.80;;;8.80;1.00;;;;;;5094021;28;20166;-74
2020/12/13 02:45:29;;;;;;;40.70;10.17;;;9.20;1.00;;;;;;5093353;28;20451;-74
2020/12/13 02:47:58;;;;;;;28.20;10.47;;;8.60;1.00;;;;;;5084747;28;20866;-74
2020/12/13 02:50:28;;;;;;;30.70;10.77;;;7.80;1.00;;;;;;5089595;28;20499;-74
2020/12/13 02:52:53;;;;;;;30.27;9.83;;;7.80;1.00;;;;;;5080299;28;20389;-74
2020/12/13 02:55:22;;;;;;;33.73;10.43;;;9.10;1.00;;;;;;5080386;28;20393;-74
2020/12/13 02:57:47;;;;;;;32.03;10.80;;;8.90;1.00;;;;;;5078774;28;20543;-74
2020/12/13 03:00:16;;;;;;;44.90;11.03;;;7.80;1.00;;;;;;5098139;28;20511;-74
2020/12/13 03:02:46;;;;;;;34.50;10.37;;;9.20;1.00;;;;;;5093847;28;20166;-74
2020/12/13 03:05:16;;;;;;;38.80;10.00;;;9.10;1.00;;;;;;5096126;28;20958;-74
2020/12/13 03:07:46;;;;;;;43.30;10.27;;;7.80;1.00;;;;;;5099890;28;20451;-74
2020/12/13 03:10:28;;;;;;;29.43;8.93;;;9.50;1.00;;;;;;5100478;28;20397;-74
2020/12/13 03:12:54;;;;;;;33.80;9.97;;;7.80;1.00;;;;;;5100307;28;20983;-74
2020/12/13 03:15:19;;;;;;;30.10;9.90;;;8.20;1.00;;;;;;5100426;28;20421;-74
2020/12/13 03:17:46;;;;;;;27.57;10.47;;;7.70;1.00;;;;;;5092957;28;20175;-74
2020/12/13 03:20:12;;;;;;;37.87;10.80;;;7.70;1.00;;;;;;5079892;28;20198;-74
2020/12/13 03:22:38;;;;;;;49.43;9.93;;;7.70;1.00;;;;;;5097960;28;20463;-74
2020/12/13 03:25:04;;;;;;;33.90;10.17;;;7.70;1.00;;;;;;5080063;28;20166;-74
2020/12/13 03:27:30;;;;;;;38.80;11.33;;;7.70;1.00;;;;;;5080044;28;20528;-74
2020/12/13 03:29:56;;;;;;;35.70;10.77;;;7.70;1.00;;;;;;5080103;28;20823;-74
2020/12/13 03:32:22;;;;;;;27.70;10.50;;;7.60;1.00;;;;;;5098563;28;20503;-74
2020/12/13 03:34:58;;;;;;;51.27;12.07;;;7.60;1.00;;;;;;5098615;28;20393;-74
2020/12/13 03:37:45;;;;;;;34.10;11.30;;;7.80;1.00;;;;;;5082867;28;20427;-74
2020/12/13 03:40:11;;;;;;;37.73;11.27;;;7.60;1.00;;;;;;5100241;28;20391;-74
2020/12/13 03:42:46;;;;;;;37.43;9.83;;;7.60;1.00;;;;;;5099393;28;20407;-74
2020/12/13 03:45:16;;;;;;;32.83;10.40;;;7.60;1.00;;;;;;5100074;28;20888;-73
2020/12/13 03:47:42;;;;;;;20.23;9.10;;;7.60;1.00;;;;;;5100148;28;20472;-74
2020/12/13 03:50:07;;;;;;;26.20;10.77;;;7.70;1.00;;;;;;5093447;28;20449;-74
2020/12/13 03:52:34;;;;;;;30.03;10.10;;;8.30;1.00;;;;;;5079682;28;20175;-74
2020/12/13 03:55:21;;;;;;;24.03;9.73;;;8.90;1.00;;;;;;5079845;28;20626;-76
2020/12/13 03:58:04;;;;;;;27.57;10.03;;;7.70;1.00;;;;;;5080166;28;20463;-76
2020/12/13 04:01:04;;;;;;;36.17;9.90;;;7.70;1.00;;;;;;5079773;28;20396;-76
2020/12/13 04:06:51;;;;;;;23.07;9.40;;;7.70;1.00;;;;;;5076290;28;20455;-76
2020/12/13 04:13:03;;;;;;;39.13;10.80;;;7.80;1.00;;;;;;5076688;28;20206;-76
2020/12/13 04:16:03;;;;;;;34.13;10.20;;;7.70;1.00;;;;;;5076354;28;20392;-76
2020/12/13 04:18:29;;;;;;;47.33;9.07;;;7.80;1.00;;;;;;5076231;28;20746;-76
2020/12/13 04:21:04;;;;;;;28.10;11.30;;;7.80;1.00;;;;;;5080520;28;20412;-77
2020/12/13 04:23:33;;;;;;;40.03;10.20;;;7.80;1.00;;;;;;5096762;28;20173;-74
2020/12/13 04:25:59;;;;;;;40.33;10.50;;;7.80;1.00;;;;;;5080526;28;20413;-74
2020/12/13 04:28:25;;;;;;;32.80;10.10;;;7.80;1.00;;;;;;5075854;28;20468;-74
2020/12/13 04:30:52;;;;;;;38.67;11.70;;;7.80;1.00;;;;;;5076299;28;20228;-74
2020/12/13 04:33:18;;;;;;;27.43;10.37;;;7.90;1.00;;;;;;5075887;28;20206;-74
2020/12/13 04:35:43;;;;;;;53.97;10.87;;;7.80;1.00;;;;;;5076218;28;20467;-74
2020/12/13 04:38:09;;;;;;;44.23;9.60;;;7.80;1.00;;;;;;5076335;28;20167;-74
2020/12/13 04:40:46;;;;;;;25.47;10.67;;;7.90;1.00;;;;;;5076036;28;20659;-74
2020/12/13 04:43:12;;;;;;;27.07;10.47;;;7.90;1.00;;;;;;5089547;28;20177;-74
2020/12/13 04:45:38;;;;;;;34.27;11.43;;;7.80;1.00;;;;;;5075811;28;20793;-75
2020/12/13 04:48:08;;;;;;;39.77;12.03;;;7.80;1.00;;;;;;5075814;28;20300;-74
2020/12/13 04:50:39;;;;;;;29.77;11.30;;;7.80;1.00;;;;;;5075532;28;20527;-74
2020/12/13 04:53:09;;;;;;;31.43;11.07;;;7.80;1.00;;;;;;5085755;28;20439;-75
2020/12/13 04:59:16;;;;;;;25.20;11.30;;;7.90;1.00;;;;;;5095380;28;20765;-77
2020/12/13 05:06:01;;;;;;;34.93;11.60;;;7.90;1.00;;;;;;5078764;28;20451;-77
2020/12/13 05:08:30;;;;;;;28.67;10.80;;;7.90;1.00;;;;;;5075761;28;20436;-74
2020/12/13 05:11:05;;;;;;;27.37;11.70;;;7.90;1.00;;;;;;5075429;28;20867;-74
2020/12/13 05:13:30;;;;;;;27.87;10.20;;;8.00;1.00;;;;;;5075218;28;20980;-74
2020/12/13 05:15:56;;;;;;;23.37;9.83;;;7.90;1.00;;;;;;5074805;28;20390;-74
2020/12/13 05:18:23;;;;;;;24.10;9.60;;;8.00;1.00;;;;;;5075057;28;20727;-74
2020/12/13 05:20:59;;;;;;;29.87;10.20;;;8.00;1.00;;;;;;5075097;28;20170;-74
2020/12/13 05:23:34;;;;;;;20.47;9.47;;;8.60;1.00;;;;;;5075113;28;20454;-74
2020/12/13 05:26:00;;;;;;;25.03;8.60;;;8.00;1.00;;;;;;5074731;28;20442;-74
2020/12/13 05:28:26;;;;;;;26.17;10.83;;;8.10;1.00;;;;;;5074718;28;20472;-74
2020/12/13 05:30:53;;;;;;;23.87;9.60;;;9.00;1.00;;;;;;5073641;28;20461;-74
2020/12/13 05:33:35;;;;;;;22.90;9.27;;;8.00;1.00;;;;;;5074692;28;20421;-74
2020/12/13 05:36:03;;;;;;;21.57;9.70;;;8.00;1.00;;;;;;5080071;28;20930;-74
2020/12/13 05:42:12;;;;;;;26.20;9.87;;;8.00;1.00;;;;;;5074583;28;20778;-77
2020/12/13 05:53:37;;;;;;;19.37;9.37;;;8.00;1.00;;;;;;5035842;28;20506;-76
2020/12/13 05:56:04;;;;;;;24.40;10.70;;;8.00;1.00;;;;;;5052590;28;20493;-74
2020/12/13 05:58:35;;;;;;;21.60;9.50;;;7.90;1.00;;;;;;5052125;28;20523;-74
2020/12/13 06:01:05;;;;;;;21.90;8.50;;;7.90;1.00;;;;;;5052265;28;20399;-74
2020/12/13 06:03:38;;;;;;;21.93;9.40;;;8.10;1.00;;;;;;5052230;28;20877;-74
2020/12/13 06:06:10;;;;;;;21.13;9.50;;;8.00;1.00;;;;;;5051962;28;20963;-74
2020/12/13 06:09:09;;;;;;;20.83;9.30;;;8.00;1.00;;;;;;5052091;28;20449;-74
2020/12/13 06:12:22;;;;;;;22.30;8.77;;;8.00;1.00;;;;;;4954029;29;20450;-76
2020/12/13 06:15:34;;;;;;;21.40;8.40;;;8.00;1.00;;;;;;4954056;29;20438;-77
2020/12/13 06:18:34;;;;;;;21.23;9.97;;;8.00;1.00;;;;;;4954299;29;20386;-76
2020/12/13 06:25:10;;;;;;;19.87;9.10;;;7.90;1.00;;;;;;4954481;29;20925;-78
2020/12/13 06:31:04;;;;;;;20.67;9.20;;;8.00;1.00;;;;;;4992258;28;20950;-76
2020/12/13 06:34:04;;;;;;;21.70;10.27;;;8.00;1.00;;;;;;4992721;28;20401;-77
2020/12/13 06:36:33;;;;;;;19.80;9.27;;;8.00;1.00;;;;;;4992045;28;20900;-76
2020/12/13 06:39:16;;;;;;;25.23;9.67;;;8.00;1.00;;;;;;4992647;28;20459;-76
2020/12/13 06:41:49;;;;;;;19.30;8.87;;;8.00;1.00;;;;;;4992169;28;20790;-76
2020/12/13 06:44:16;;;;;;;29.70;8.83;;;8.00;1.00;;;;;;4988727;28;20440;-76
2020/12/13 06:46:44;;;;;;;20.13;10.00;;;7.90;1.00;;;;;;4983122;28;20453;-76
2020/12/13 06:49:34;;;;;;;24.40;10.17;;;7.90;1.00;;;;;;5061565;28;20457;-76
2020/12/13 06:52:37;;;;;;;19.13;9.97;;;7.90;1.00;;;;;;5074419;28;20429;-76
2020/12/13 06:55:11;;;;;;;24.50;10.10;;;7.90;1.00;;;;;;5083887;28;20508;-76
2020/12/13 06:57:42;;;;;;;25.13;10.10;;;7.90;1.00;;;;;;5091070;28;20835;-76
2020/12/13 07:00:22;;;;;;;19.13;8.90;;;7.90;1.00;;;;;;5079763;28;20413;-76
2020/12/13 07:03:33;;;;;;;21.77;9.60;;;9.10;1.00;;;;;;5072566;28;20751;-76
2020/12/13 07:06:17;;;;;;;23.07;8.87;;;7.90;1.00;;;;;;5073833;28;20385;-77
2020/12/13 07:09:06;;;;;;;20.33;9.20;;;7.80;1.00;;;;;;5086972;28;20459;-77
2020/12/13 07:11:33;;;;;;;18.87;8.40;;;7.90;1.00;;;;;;5091084;28;20465;-74
2020/12/13 07:14:07;;;;;;;20.40;9.53;;;8.10;1.00;;;;;;5073311;28;21054;-74
2020/12/13 07:16:39;;;;;;;17.10;9.57;;;7.90;1.00;;;;;;5073462;28;20692;-74
2020/12/13 07:19:09;;;;;;;26.67;9.27;;;7.90;1.00;;;;;;5073364;28;20400;-74
2020/12/13 07:21:42;;;;;;;21.90;9.67;;;8.00;1.00;;;;;;5072982;28;21005;-74
2020/12/13 07:24:11;;;;;;;19.00;9.33;;;8.00;1.00;;;;;;5073141;28;20404;-74
2020/12/13 07:26:54;;;;;;;20.53;9.50;;;8.00;1.00;;;;;;5073667;28;20402;-74
2020/12/13 07:29:29;;;;;;;24.80;9.60;;;8.00;1.00;;;;;;5073091;28;20436;-74
2020/12/13 07:31:55;;;;;;;19.53;8.30;;;8.00;1.00;;;;;;5073115;28;20419;-74
2020/12/13 07:34:34;;;;;;;19.30;8.90;;;8.00;1.00;;;;;;5073240;28;20470;-74
2020/12/13 07:37:01;;;;;;;18.30;9.17;;;8.10;1.00;;;;;;5090616;28;20526;-74
2020/12/13 07:39:34;;;;;;;21.50;9.20;;;8.10;1.00;;;;;;5094916;28;20417;-74
2020/12/13 07:42:34;;;;;;;19.53;9.07;;;8.10;1.00;;;;;;5097722;28;20439;-76
2020/12/13 07:44:59;;;;;;;16.83;8.27;;;8.10;1.00;;;;;;5097190;28;20430;-77
2020/12/13 07:47:34;;;;;;;19.63;9.57;;;8.20;1.00;;;;;;5091472;28;20459;-80
2020/12/13 07:50:54;;;;;;;19.13;9.43;;;8.10;1.00;;;;;;5096771;28;20172;-79
2020/12/13 07:54:04;;;;;;;22.87;9.20;;;8.10;1.00;;;;;;4999150;28;20811;-82
2020/12/13 07:57:24;;;;;;;18.47;8.50;;;8.10;1.00;;;;;;5015273;28;20439;-81
2020/12/13 08:03:48;;;;;;;19.37;8.33;;;8.10;1.00;;;;;;4956118;29;20554;-79
2020/12/13 08:06:34;;;;;;;23.10;9.07;;;8.10;1.00;;;;;;4956328;29;20406;-81
2020/12/13 08:09:34;;;;;;;19.40;8.37;;;8.10;1.00;;;;;;4940023;29;20477;-81
2020/12/13 08:12:29;;;;;;;24.27;9.20;;;8.10;1.00;;;;;;4956647;29;20499;-79
2020/12/13 08:15:34;;;;;;;28.07;8.73;;;8.20;1.00;;;;;;4944143;29;20431;-78
2020/12/13 08:18:15;;;;;;;23.77;9.63;;;8.20;1.00;;;;;;4956144;29;20443;-77
2020/12/13 08:21:05;;;;;;;21.83;9.23;;;8.20;1.00;;;;;;4956251;28;20438;-76
2020/12/13 08:23:33;;;;;;;26.77;10.83;;;8.20;1.00;;;;;;4955784;28;20934;-74
2020/12/13 08:26:16;;;;;;;16.33;8.67;;;8.30;1.00;;;;;;4955982;29;20958;-77
2020/12/13 08:28:48;;;;;;;23.77;9.07;;;8.30;1.00;;;;;;4986641;28;20458;-77
2020/12/13 08:31:35;;;;;;;25.43;9.33;;;8.30;1.00;;;;;;5033100;28;20623;-77
2020/12/13 08:34:34;;;;;;;17.53;8.53;;;8.30;1.00;;;;;;5059190;28;20425;-78
2020/12/13 08:37:04;;;;;;;20.53;8.37;;;8.30;1.00;;;;;;5093594;28;20489;-77
2020/12/13 08:39:52;;;;;;;20.00;8.87;;;8.40;1.00;;;;;;5096468;28;20389;-77
2020/12/13 08:42:28;;;;;;;17.90;10.60;;;8.50;1.00;;;;;;5093118;28;20420;-77
2020/12/13 08:44:54;;;;;;;21.83;8.37;;;8.50;1.00;;;;;;5089405;28;20419;-77
2020/12/13 08:47:34;;;;;;;24.90;10.10;;;8.50;1.00;;;;;;5081534;28;20409;-78
2020/12/13 08:50:05;;;;;;;22.33;9.50;;;8.60;1.00;;;;;;5074841;28;20158;-77
2020/12/13 08:52:34;;;;;;;20.87;9.50;;;8.60;1.00;;;;;;5075957;28;20369;-77
2020/12/13 08:55:05;;;;;;;21.80;9.33;;;8.70;1.00;;;;;;5093467;28;20507;-77
2020/12/13 08:57:35;;;;;;;21.37;9.53;;;8.70;1.00;;;;;;5091590;28;20496;-74
2020/12/13 09:00:17;;;;;;;20.63;9.47;;;8.70;1.00;;;;;;5095098;28;20417;-74
2020/12/13 09:03:04;;;;;;;26.13;10.57;;;8.70;1.00;;;;;;5095969;28;20418;-74
2020/12/13 09:05:34;;;;;;;21.27;9.67;;;8.80;1.00;;;;;;5080001;28;20413;-74
2020/12/13 09:08:04;;;;;;;25.17;10.60;;;8.80;1.00;;;;;;5075351;28;20807;-74
2020/12/13 09:10:37;;;;;;;23.60;9.83;;;8.90;1.00;;;;;;5076978;28;20958;-74
2020/12/13 09:13:07;;;;;;;20.60;9.37;;;8.90;1.00;;;;;;5093477;28;20964;-77
2020/12/13 09:16:04;;;;;;;20.50;9.30;;;9.00;1.00;;;;;;5089032;28;20456;-77
2020/12/13 09:19:08;;;;;;;20.10;9.40;;;9.00;1.00;;;;;;5089738;28;20404;-77
2020/12/13 09:21:57;;;;;;;20.20;9.87;;;9.00;1.00;;;;;;5093706;28;20404;-77
2020/12/13 09:25:04;;;;;;;25.40;9.53;;;9.00;1.00;;;;;;5091737;28;20455;-77
2020/12/13 09:27:34;;;;;;;24.97;8.90;;;9.00;1.00;;;;;;5079407;28;20451;-77
2020/12/13 09:30:16;;;;;;;19.67;8.83;;;9.10;1.00;;;;;;5094929;28;20392;-77
2020/12/13 09:33:34;;;;;;;18.77;9.37;;;9.00;1.00;;;;;;5076050;28;20408;-77
2020/12/13 09:36:34;;;;;;;23.97;9.40;;;9.00;1.00;;;;;;5084139;28;20435;-77
2020/12/13 09:39:34;;;;;;;15.47;7.73;;;9.00;1.00;;;;;;5095137;28;20388;-77
2020/12/13 09:42:04;;;;;;;18.80;8.27;;;9.00;1.00;;;;;;5095268;28;20381;-77
2020/12/13 09:44:34;;;;;;;17.00;8.67;;;9.10;1.00;;;;;;5088654;28;20409;-77
2020/12/13 09:47:05;;;;;;;15.83;7.80;;;9.10;1.00;;;;;;5074698;28;20409;-77
2020/12/13 09:50:04;;;;;;;19.47;8.17;;;9.10;1.00;;;;;;5076453;28;20532;-77
2020/12/13 09:52:34;;;;;;;17.33;7.57;;;9.10;1.00;;;;;;5074880;28;20419;-77
2020/12/13 09:55:04;;;;;;;16.17;7.83;;;9.20;1.00;;;;;;5074561;28;20405;-77
2020/12/13 09:57:36;;;;;;;13.67;6.60;;;9.30;1.00;;;;;;5087899;28;20416;-77
2020/12/13 10:00:05;;;;;;;14.63;7.40;;;9.40;1.00;;;;;;5079240;28;20409;-77
2020/12/13 10:03:04;;;;;;;15.17;7.37;;;9.60;1.00;;;;;;5073516;28;20416;-77
2020/12/13 10:09:10;;;;;;;15.10;7.87;;;9.60;1.00;;;;;;5074541;28;20954;-78
2020/12/13 10:12:04;;;;;;;15.97;7.40;;;9.60;1.00;;;;;;5074303;28;20873;-77
2020/12/13 10:14:34;;;;;;;15.17;6.90;;;9.70;1.00;;;;;;5073971;28;20425;-78
2020/12/13 10:17:34;;;;;;;13.17;6.90;;;9.80;1.00;;;;;;5073905;28;20381;-77
2020/12/13 10:20:04;;;;;;;11.37;7.53;;;9.80;1.00;;;;;;5073765;28;20811;-78
2020/12/13 10:23:04;;;;;;;20.10;7.50;;;9.90;1.00;;;;;;5074222;28;20860;-77
2020/12/13 10:25:34;;;;;;;13.90;6.30;;;9.90;1.00;;;;;;5074380;28;20394;-78
2020/12/13 10:28:00;;;;;;;9.13;5.60;;;9.90;1.00;;;;;;5094025;28;20474;-74
2020/12/13 10:30:25;;;;;;;15.70;6.10;;;10.00;1.00;;;;;;5085425;28;20788;-75
2020/12/13 10:32:51;;;;;;;9.00;5.60;;;10.60;1.00;;;;;;5073713;28;20159;-75
2020/12/13 10:35:16;;;;;;;8.20;5.30;;;10.10;1.00;;;;;;5076527;28;20220;-74
2020/12/13 10:37:46;;;;;;;7.27;5.40;;;10.90;1.00;;;;;;5094095;28;20197;-74
2020/12/13 10:40:16;;;;;;;8.87;5.13;;;10.30;1.00;;;;;;5094112;28;20207;-75
2020/12/13 10:42:58;;;;;;;9.60;5.53;;;10.40;1.00;;;;;;5094607;28;20449;-78
2020/12/13 10:45:28;;;;;;;7.10;4.80;;;10.40;1.00;;;;;;5079083;28;20960;-74
2020/12/13 10:47:54;;;;;;;10.10;4.73;;;10.50;1.00;;;;;;5084215;28;20796;-74
2020/12/13 10:50:22;;;;;;;7.40;4.47;;;10.40;1.00;;;;;;5090133;28;20409;-74
2020/12/13 10:52:48;;;;;;;8.80;5.20;;;10.40;1.00;;;;;;5093871;28;20246;-74
2020/12/13 10:55:16;;;;;;;9.40;4.70;;;10.20;1.00;;;;;;5092001;28;20471;-74
2020/12/13 10:57:46;;;;;;;16.67;4.37;;;10.20;1.00;;;;;;5074233;28;20155;-78
2020/12/13 11:00:16;;;;;;;7.77;5.00;;;10.20;1.00;;;;;;5073686;28;20722;-74
2020/12/13 11:02:42;;;;;;;9.07;4.73;;;10.20;1.00;;;;;;5073547;28;20404;-74
2020/12/13 11:05:07;;;;;;;5.13;3.70;;;10.10;1.00;;;;;;5073383;28;20402;-75
2020/12/13 11:07:34;;;;;;;19.80;5.30;;;10.70;1.00;;;;;;5073434;28;20190;-74
2020/12/13 11:10:04;;;;;;;7.90;4.50;;;10.90;1.00;;;;;;5073595;28;20685;-74
2020/12/13 11:12:34;;;;;;;10.10;4.13;;;10.20;1.00;;;;;;5074875;28;20393;-75
2020/12/13 11:15:04;;;;;;;9.33;3.97;;;10.20;1.00;;;;;;5077545;28;20915;-75
2020/12/13 11:17:30;;;;;;;7.27;3.87;;;10.30;1.00;;;;;;5086028;28;20416;-74
2020/12/13 11:20:05;;;;;;;5.00;3.30;;;10.30;1.00;;;;;;5081717;28;20397;-74
2020/12/13 11:22:31;;;;;;;10.13;3.80;;;10.40;1.00;;;;;;5077155;28;20165;-74
2020/12/13 11:24:59;;;;;;;9.23;3.97;;;11.10;1.00;;;;;;5077158;28;20480;-74
2020/12/13 11:28:05;;;;;;;6.67;3.70;;;10.50;1.00;;;;;;5077450;28;20393;-76
2020/12/13 11:30:34;;;;;;;6.80;3.97;;;10.50;1.00;;;;;;5077004;28;20396;-77
2020/12/13 11:33:04;;;;;;;4.47;3.13;;;10.60;1.00;;;;;;5076954;28;20865;-77
2020/12/13 11:35:30;;;;;;;5.50;3.50;;;10.60;1.00;;;;;;5081669;28;20789;-77
2020/12/13 11:38:04;;;;;;;5.13;3.10;;;10.60;1.00;;;;;;5097387;28;20403;-77
2020/12/13 11:40:30;;;;;;;5.77;3.60;;;10.60;1.00;;;;;;5097116;28;20513;-77
2020/12/13 11:42:56;;;;;;;5.47;3.20;;;10.60;1.00;;;;;;5097326;28;20491;-74
2020/12/13 11:45:28;;;;;;;6.03;3.60;;;11.80;1.00;;;;;;5096940;28;20167;-74
2020/12/13 11:47:54;;;;;;;5.53;3.40;;;10.60;1.00;;;;;;5096979;28;20190;-74
2020/12/13 11:50:22;;;;;;;3.67;2.83;;;10.60;1.00;;;;;;5096927;28;20421;-75
2020/12/13 11:52:48;;;;;;;5.17;3.57;;;11.00;1.00;;;;;;5097227;28;20162;-74
2020/12/13 11:55:16;;;;;;;6.53;3.23;;;10.80;1.00;;;;;;5097028;28;20393;-74
2020/12/13 11:57:42;;;;;;;3.33;2.63;;;10.50;1.00;;;;;;5097314;28;20605;-76
2020/12/13 12:00:17;;;;;;;5.30;3.03;;;10.60;1.00;;;;;;5096948;28;20519;-77
2020/12/13 12:02:46;;;;;;;11.17;3.47;;;10.60;1.00;;;;;;5096695;28;20162;-77
2020/12/13 12:05:34;;;;;;;4.47;3.07;;;10.70;1.00;;;;;;5097064;28;20404;-77
2020/12/13 12:08:04;;;;;;;3.47;2.87;;;14.10;1.00;;;;;;5096711;28;20440;-76
2020/12/13 12:10:34;;;;;;;4.37;2.70;;;10.60;1.00;;;;;;5096611;28;20710;-76
2020/12/13 12:13:04;;;;;;;5.20;3.03;;;10.70;1.00;;;;;;5078607;28;20420;-75
2020/12/13 12:16:04;;;;;;;7.07;3.20;;;10.60;1.00;;;;;;5076245;28;20385;-75
2020/12/13 12:18:40;;;;;;;4.47;3.00;;;10.80;1.00;;;;;;5076431;28;20782;-75
2020/12/13 12:21:58;;;;;;;5.50;2.93;;;10.80;1.00;;;;;;5076258;28;20432;-75
2020/12/13 12:24:29;;;;;;;4.07;3.07;;;10.70;1.00;;;;;;5075069;28;20417;-76
2020/12/13 12:27:10;;;;;;;4.20;2.67;;;10.70;1.00;;;;;;5076312;28;20393;-76
2020/12/13 12:29:37;;;;;;;6.37;3.07;;;10.90;1.00;;;;;;5084477;28;20463;-74
2020/12/13 12:32:03;;;;;;;5.70;3.00;;;10.80;1.00;;;;;;5086964;28;20425;-74
2020/12/13 12:34:28;;;;;;;9.13;3.20;;;10.80;1.00;;;;;;5095330;28;20389;-74
2020/12/13 12:36:59;;;;;;;4.00;2.67;;;10.80;1.00;;;;;;5095611;28;20435;-75
2020/12/13 12:39:25;;;;;;;5.17;2.97;;;10.80;1.00;;;;;;5095171;28;20213;-75
2020/12/13 12:41:51;;;;;;;4.23;2.40;;;10.80;1.00;;;;;;5095201;28;20477;-75
2020/12/13 12:44:17;;;;;;;5.43;2.70;;;11.20;1.00;;;;;;5096060;28;20836;-75
2020/12/13 12:46:43;;;;;;;3.33;2.63;;;10.90;1.00;;;;;;5095993;28;20182;-75
2020/12/13 12:49:08;;;;;;;3.20;2.30;;;11.00;1.00;;;;;;5095846;28;20189;-74
2020/12/13 12:51:34;;;;;;;4.43;2.30;;;11.00;1.00;;;;;;5096027;28;20198;-74
2020/12/13 12:54:00;;;;;;;3.03;2.60;;;11.10;1.00;;;;;;5090307;28;20196;-75
2020/12/13 12:56:28;;;;;;;2.77;2.00;;;11.00;1.00;;;;;;5077615;28;20245;-75
2020/12/13 13:01:26;;;;;;;4.50;2.30;;;11.00;1.00;;;;;;5075859;28;20500;-74
2020/12/13 13:03:59;;;;;;;3.17;1.70;;;11.30;1.00;;;;;;5075104;28;20432;-75
2020/12/13 13:09:03;;;;;;;1.70;1.53;;;11.10;1.00;;;;;;5075867;28;20455;-76
2020/12/13 13:11:38;;;;;;;1.60;1.50;;;11.40;1.00;;;;;;5075481;28;20841;-75
2020/12/13 13:14:05;;;;;;;3.30;2.10;;;11.40;1.00;;;;;;5075529;28;20442;-75
2020/12/13 13:16:34;;;;;;;2.33;1.90;;;11.40;1.00;;;;;;5075345;28;20390;-75
2020/12/13 13:19:05;;;;;;;2.07;1.70;;;11.50;1.00;;;;;;5075024;28;20451;-74
2020/12/13 13:21:36;;;;;;;3.03;2.00;;;11.40;1.00;;;;;;5097364;28;20416;-77
2020/12/13 13:24:03;;;;;;;4.77;2.00;;;11.40;1.00;;;;;;5091171;28;20407;-73
2020/12/13 13:26:34;;;;;;;3.87;2.10;;;11.60;1.00;;;;;;5112298;28;20400;-78
2020/12/13 13:29:04;;;;;;;2.87;2.23;;;11.50;1.00;;;;;;5095143;28;20470;-75
2020/12/13 13:31:30;;;;;;;1.90;1.80;;;11.60;1.00;;;;;;5076177;28;20417;-75
2020/12/13 13:33:58;;;;;;;1.63;1.40;;;11.50;1.00;;;;;;5075113;28;20394;-76
2020/12/13 13:36:24;;;;;;;1.50;1.40;;;11.60;1.00;;;;;;5087407;28;20456;-77
2020/12/13 13:38:58;;;;;;;2.03;1.60;;;11.60;1.00;;;;;;5094954;28;20883;-76
2020/12/13 13:41:36;;;;;;;1.40;1.30;;;11.70;1.00;;;;;;5094064;28;21083;-77
2020/12/13 13:44:05;;;;;;;1.30;1.20;;;11.70;1.00;;;;;;5095403;28;20404;-75
2020/12/13 13:51:44;;;;;;;2.90;1.20;;;11.40;1.00;;;;;;5074731;28;20727;-75
2020/12/13 13:54:23;;;;;;;0.97;0.97;;;11.30;1.00;;;;;;5074313;28;20417;-75
2020/12/13 13:57:04;;;;;;;3.60;0.90;;;11.20;1.00;;;;;;5074543;28;20155;-75
2020/12/13 13:59:46;;;;;;;1.20;1.00;;;10.90;1.00;;;;;;5076733;28;20420;-76
2020/12/13 14:02:12;;;;;;;2.03;1.00;;;10.90;1.00;;;;;;5094691;28;20396;-77
2020/12/13 14:05:07;;;;;;;1.10;1.00;;;10.80;1.00;;;;;;5094729;28;20407;-76
2020/12/13 14:10:22;;;;;;;1.93;1.20;;;10.70;1.00;;;;;;5085333;28;20409;-76
2020/12/13 14:13:28;;;;;;;6.53;1.27;;;10.80;1.00;;;;;;5074229;28;20435;-77
2020/12/13 14:15:53;;;;;;;2.50;0.90;;;10.80;1.00;;;;;;5074567;28;20400;-74
2020/12/13 14:18:19;;;;;;;0.70;0.70;;;10.80;1.00;;;;;;5073878;28;20417;-75
2020/12/13 14:20:45;;;;;;;1.10;0.80;;;10.90;1.00;;;;;;5074131;28;20163;-75
2020/12/13 14:23:10;;;;;;;1.00;0.73;;;10.90;1.00;;;;;;5088562;28;20178;-75
2020/12/13 14:25:36;;;;;;;0.80;0.70;;;11.00;1.00;;;;;;5084254;28;20182;-74
2020/12/13 14:28:02;;;;;;;1.20;1.10;;;11.00;1.00;;;;;;5073890;28;20191;-74
2020/12/13 14:30:27;;;;;;;3.27;1.07;;;11.30;1.00;;;;;;5074337;28;20238;-74
2020/12/13 14:32:53;;;;;;;2.83;0.77;;;11.10;1.00;;;;;;5074095;28;20156;-75
2020/12/13 14:35:28;;;;;;;1.83;1.00;;;11.20;1.00;;;;;;5088032;28;20464;-74
2020/12/13 14:37:54;;;;;;;4.50;1.00;;;10.90;1.00;;;;;;5094211;28;20188;-75
2020/12/13 14:40:20;;;;;;;0.90;0.70;;;10.70;1.00;;;;;;5094078;28;20491;-75